Neptune Avra — 9HKH6 — position and weather

sailwx.info

Track history (hours):
 
Tides and Currents Weather Stations Pressure Air Temp Water Temp Dewpoint Dewpoint Depression Visibility Wind Speed Wind Dir Waves Ship Positions

Neptune Avra

Last reported at 2014-Oct-20 20:21 UTC. Time now 2014-Oct-22 06:38 UTC.
Position N 36°03' W 005°12'.

Length 155 m; draft 6.5 m.

Type: Cargo ship. MMSI: 248598000.

Date/timePositionNaut miles runAvg speedWind from/ knotsBaromVisibWave heightAir tempDewpointWater temp
2014-Oct-20 20:21N 36°03' W 005°12'1215.3
2014-Oct-20 19:31N 35°57' W 005°26'3 0.2
2014-Oct-20 03:33N 35°59' W 005°29'1414.2
2014-Oct-20 02:34N 36°03' W 005°12'212 8.2
2014-Oct-19 00:31N 37°14' W 001°03'1615.7
2014-Oct-18 23:32N 37°24' W 000°48'1515.7
2014-Oct-18 22:33N 37°34' W 000°34'1515.4
2014-Oct-18 21:33N 37°47' W 000°23'1515.4
2014-Oct-18 20:33N 37°60' W 000°12'1815.7
2014-Oct-18 19:24N 38°15' E 000°00'1315.8
2014-Oct-18 18:33N 38°26' E 000°10'1515.5
2014-Oct-18 17:33N 38°39' E 000°20'1615.4
2014-Oct-18 16:32N 38°52' E 000°32'1515.4
2014-Oct-18 15:34N 39°04' E 000°44'1515.3
2014-Oct-18 14:33N 39°16' E 000°56'1515.1
2014-Oct-18 13:32N 39°28' E 001°08'1515.4
2014-Oct-18 12:33N 39°41' E 001°19'1514.9
2014-Oct-18 11:33N 39°53' E 001°31'1514.9
2014-Oct-18 10:33N 40°05' E 001°42'1514.9
2014-Oct-18 09:31N 40°17' E 001°55'1616.2
2014-Oct-18 08:30N 40°29' E 002°09'1213.0
2014-Oct-18 07:33N 40°39' E 002°19'1514.8
2014-Oct-18 06:33N 40°51' E 002°30'1915.3
2014-Oct-18 05:17N 41°06' E 002°46'1115.3
2014-Oct-18 04:33N 41°15' E 002°55'1515.4
2014-Oct-18 03:33N 41°27' E 003°08'1515.4
2014-Oct-18 02:33N 41°39' E 003°20'3915.6
2014-Oct-18 00:04N 42°10' E 003°52'815.6
2014-Oct-17 23:33N 42°16' E 003°59'1815.6
2014-Oct-17 22:25N 42°30' E 004°14'1315.4
2014-Oct-17 21:33N 42°40' E 004°26'1515.3
2014-Oct-17 20:33N 42°52' E 004°39'1515.2
2014-Oct-17 19:33N 43°04' E 004°52'1413.8
2014-Oct-17 18:33N 43°17' E 004°59'10 9.6
2014-Oct-17 17:33N 43°24' E 004°51'0 0.1
2014-Oct-17 16:31N 43°24' E 004°51'0 0.0
2014-Oct-17 15:31N 43°24' E 004°51'0 0.0
2014-Oct-17 14:31N 43°24' E 004°51'0 0.0
2014-Oct-17 13:31N 43°24' E 004°51'0 0.0
2014-Oct-17 12:28N 43°24' E 004°51'0 0.0
2014-Oct-17 11:31N 43°24' E 004°51'0 0.0
2014-Oct-17 10:33N 43°24' E 004°51'2 2.1
2014-Oct-17 09:34N 43°24' E 004°54'1111.3
2014-Oct-17 08:34N 43°14' E 005°01'1515.3
2014-Oct-17 07:33N 43°01' E 004°50'1616.2
2014-Oct-17 06:33N 42°49' E 004°35'4915.9
2014-Oct-17 03:27N 42°12' E 003°51'1415.7
2014-Oct-17 02:32N 42°02' E 003°38'1515.2
2014-Oct-17 01:33N 41°52' E 003°23'1515.3
2014-Oct-17 00:33N 41°43' E 003°07'1615.5
2014-Oct-16 23:33N 41°34' E 002°49'1716.0
2014-Oct-16 22:32N 41°26' E 002°30'1515.9
2014-Oct-16 21:33N 41°17' E 002°13'4 1.4
2014-Oct-16 18:33N 41°20' E 002°09'0 0.0
2014-Oct-16 16:34N 41°20' E 002°09'7 7.3
2014-Oct-16 15:33N 41°13' E 002°09'1514.8
2014-Oct-16 14:33N 40°60' E 001°60'1515.2
2014-Oct-16 13:33N 40°46' E 001°50'1515.4
2014-Oct-16 12:33N 40°33' E 001°41'1615.8
2014-Oct-16 11:33N 40°19' E 001°31'1514.5
2014-Oct-16 10:33N 40°06' E 001°23'1515.2
2014-Oct-16 09:33N 39°52' E 001°14'12515.1
2014-Oct-16 01:14N 38°03' W 000°05'1115.2
2014-Oct-16 00:32N 37°54' W 000°13'1414.9
2014-Oct-15 23:33N 37°42' W 000°23'1514.8
2014-Oct-15 22:33N 37°31' W 000°35'1514.8
2014-Oct-15 21:33N 37°21' W 000°48'1514.8
2014-Oct-15 20:33N 37°11' W 001°02'1514.6
2014-Oct-15 19:33N 37°01' W 001°16'1414.7
2014-Oct-15 18:33N 36°51' W 001°30'185 6.8
2014-Oct-14 15:33N 36°03' W 005°11'17 1.5
2014-Oct-14 04:08N 35°56' W 005°30'610.8
2014-Oct-14 03:34N 35°60' W 005°24'  
Track history (hours):
 
Tides and Currents Weather Stations Pressure Air Temp Water Temp Dewpoint Dewpoint Depression Visibility Wind Speed Wind Dir Waves Ship Positions

Neptune Avra

Last reported at 2014-Oct-20 20:21 UTC. Time now 2014-Oct-22 06:38 UTC.
Position N 36°03' W 005°12'.

Length 155 m; draft 6.5 m.

Type: Cargo ship. MMSI: 248598000.

Date/timePositionNaut miles runAvg speedWind from/ knotsBaromVisibWave heightAir tempDewpointWater temp
2014-Oct-20 20:21N 36°03' W 005°12'1215.3
2014-Oct-20 19:31N 35°57' W 005°26'3 0.2
2014-Oct-20 03:33N 35°59' W 005°29'1414.2
2014-Oct-20 02:34N 36°03' W 005°12'212 8.2
2014-Oct-19 00:31N 37°14' W 001°03'1615.7
2014-Oct-18 23:32N 37°24' W 000°48'1515.7
2014-Oct-18 22:33N 37°34' W 000°34'1515.4
2014-Oct-18 21:33N 37°47' W 000°23'1515.4
2014-Oct-18 20:33N 37°60' W 000°12'1815.7
2014-Oct-18 19:24N 38°15' E 000°00'1315.8
2014-Oct-18 18:33N 38°26' E 000°10'1515.5
2014-Oct-18 17:33N 38°39' E 000°20'1615.4
2014-Oct-18 16:32N 38°52' E 000°32'1515.4
2014-Oct-18 15:34N 39°04' E 000°44'1515.3
2014-Oct-18 14:33N 39°16' E 000°56'1515.1
2014-Oct-18 13:32N 39°28' E 001°08'1515.4
2014-Oct-18 12:33N 39°41' E 001°19'1514.9
2014-Oct-18 11:33N 39°53' E 001°31'1514.9
2014-Oct-18 10:33N 40°05' E 001°42'1514.9
2014-Oct-18 09:31N 40°17' E 001°55'1616.2
2014-Oct-18 08:30N 40°29' E 002°09'1213.0
2014-Oct-18 07:33N 40°39' E 002°19'1514.8
2014-Oct-18 06:33N 40°51' E 002°30'1915.3
2014-Oct-18 05:17N 41°06' E 002°46'1115.3
2014-Oct-18 04:33N 41°15' E 002°55'1515.4
2014-Oct-18 03:33N 41°27' E 003°08'1515.4
2014-Oct-18 02:33N 41°39' E 003°20'3915.6
2014-Oct-18 00:04N 42°10' E 003°52'815.6
2014-Oct-17 23:33N 42°16' E 003°59'1815.6
2014-Oct-17 22:25N 42°30' E 004°14'1315.4
2014-Oct-17 21:33N 42°40' E 004°26'1515.3
2014-Oct-17 20:33N 42°52' E 004°39'1515.2
2014-Oct-17 19:33N 43°04' E 004°52'1413.8
2014-Oct-17 18:33N 43°17' E 004°59'10 9.6
2014-Oct-17 17:33N 43°24' E 004°51'0 0.1
2014-Oct-17 16:31N 43°24' E 004°51'0 0.0
2014-Oct-17 15:31N 43°24' E 004°51'0 0.0
2014-Oct-17 14:31N 43°24' E 004°51'0 0.0
2014-Oct-17 13:31N 43°24' E 004°51'0 0.0
2014-Oct-17 12:28N 43°24' E 004°51'0 0.0
2014-Oct-17 11:31N 43°24' E 004°51'0 0.0
2014-Oct-17 10:33N 43°24' E 004°51'2 2.1
2014-Oct-17 09:34N 43°24' E 004°54'1111.3
2014-Oct-17 08:34N 43°14' E 005°01'1515.3
2014-Oct-17 07:33N 43°01' E 004°50'1616.2
2014-Oct-17 06:33N 42°49' E 004°35'4915.9
2014-Oct-17 03:27N 42°12' E 003°51'1415.7
2014-Oct-17 02:32N 42°02' E 003°38'1515.2
2014-Oct-17 01:33N 41°52' E 003°23'1515.3
2014-Oct-17 00:33N 41°43' E 003°07'1615.5
2014-Oct-16 23:33N 41°34' E 002°49'1716.0
2014-Oct-16 22:32N 41°26' E 002°30'1515.9
2014-Oct-16 21:33N 41°17' E 002°13'4 1.4
2014-Oct-16 18:33N 41°20' E 002°09'0 0.0
2014-Oct-16 16:34N 41°20' E 002°09'7 7.3
2014-Oct-16 15:33N 41°13' E 002°09'1514.8
2014-Oct-16 14:33N 40°60' E 001°60'1515.2
2014-Oct-16 13:33N 40°46' E 001°50'1515.4
2014-Oct-16 12:33N 40°33' E 001°41'1615.8
2014-Oct-16 11:33N 40°19' E 001°31'1514.5
2014-Oct-16 10:33N 40°06' E 001°23'1515.2
2014-Oct-16 09:33N 39°52' E 001°14'12515.1
2014-Oct-16 01:14N 38°03' W 000°05'1115.2
2014-Oct-16 00:32N 37°54' W 000°13'1414.9
2014-Oct-15 23:33N 37°42' W 000°23'1514.8
2014-Oct-15 22:33N 37°31' W 000°35'1514.8
2014-Oct-15 21:33N 37°21' W 000°48'1514.8
2014-Oct-15 20:33N 37°11' W 001°02'1514.6
2014-Oct-15 19:33N 37°01' W 001°16'1414.7
2014-Oct-15 18:33N 36°51' W 001°30'185 6.8
2014-Oct-14 15:33N 36°03' W 005°11'17 1.5
2014-Oct-14 04:08N 35°56' W 005°30'610.8
2014-Oct-14 03:34N 35°60' W 005°24'  

Dump ship's entire track history